sensor_id;sensor_type;location;lat;lon;timestamp;temperature;humidity
69901;DHT22;57183;50.930;5.406;2023-08-20T00:01:27;20.80;99.90
69901;DHT22;57183;50.930;5.406;2023-08-20T00:03:54;20.80;99.90
69901;DHT22;57183;50.930;5.406;2023-08-20T00:06:20;20.70;99.90
69901;DHT22;57183;50.930;5.406;2023-08-20T00:08:46;20.80;99.90
69901;DHT22;57183;50.930;5.406;2023-08-20T00:11:12;20.70;99.90
69901;DHT22;57183;50.930;5.406;2023-08-20T00:13:39;20.60;99.90
69901;DHT22;57183;50.930;5.406;2023-08-20T00:16:05;20.50;99.90
69901;DHT22;57183;50.930;5.406;2023-08-20T00:18:31;20.40;99.90
69901;DHT22;57183;50.930;5.406;2023-08-20T00:20:57;20.30;99.90
69901;DHT22;57183;50.930;5.406;2023-08-20T00:23:23;20.20;99.90
69901;DHT22;57183;50.930;5.406;2023-08-20T00:25:49;20.30;99.90
69901;DHT22;57183;50.930;5.406;2023-08-20T00:28:15;20.20;99.90
69901;DHT22;57183;50.930;5.406;2023-08-20T00:30:40;20.00;99.90
69901;DHT22;57183;50.930;5.406;2023-08-20T00:33:06;19.90;99.90
69901;DHT22;57183;50.930;5.406;2023-08-20T00:35:32;19.90;99.90
69901;DHT22;57183;50.930;5.406;2023-08-20T00:37:58;20.00;99.90
69901;DHT22;57183;50.930;5.406;2023-08-20T00:40:24;20.10;99.90
69901;DHT22;57183;50.930;5.406;2023-08-20T00:42:49;20.20;99.90
69901;DHT22;57183;50.930;5.406;2023-08-20T00:45:15;20.30;99.90
69901;DHT22;57183;50.930;5.406;2023-08-20T00:47:44;20.10;99.90
69901;DHT22;57183;50.930;5.406;2023-08-20T00:50:11;20.10;99.90
69901;DHT22;57183;50.930;5.406;2023-08-20T00:52:37;19.90;99.90
69901;DHT22;57183;50.930;5.406;2023-08-20T00:55:09;19.80;99.90
69901;DHT22;57183;50.930;5.406;2023-08-20T00:57:37;19.80;99.90
69901;DHT22;57183;50.930;5.406;2023-08-20T01:00:03;19.70;99.90
69901;DHT22;57183;50.930;5.406;2023-08-20T01:02:39;19.80;99.90
69901;DHT22;57183;50.930;5.406;2023-08-20T01:05:10;19.80;99.90
69901;DHT22;57183;50.930;5.406;2023-08-20T01:12:56;19.70;99.90
69901;DHT22;57183;50.930;5.406;2023-08-20T01:15:22;19.70;99.90
69901;DHT22;57183;50.930;5.406;2023-08-20T01:17:48;19.70;99.90
69901;DHT22;57183;50.930;5.406;2023-08-20T01:20:14;19.70;99.90
69901;DHT22;57183;50.930;5.406;2023-08-20T01:28:28;19.90;99.90
69901;DHT22;57183;50.930;5.406;2023-08-20T01:30:56;20.00;99.90
69901;DHT22;57183;50.930;5.406;2023-08-20T01:33:23;19.90;99.90
69901;DHT22;57183;50.930;5.406;2023-08-20T01:35:53;19.80;99.90
69901;DHT22;57183;50.930;5.406;2023-08-20T01:38:19;19.70;99.90
69901;DHT22;57183;50.930;5.406;2023-08-20T01:40:45;19.50;99.90
69901;DHT22;57183;50.930;5.406;2023-08-20T01:43:10;19.50;99.90
69901;DHT22;57183;50.930;5.406;2023-08-20T01:45:36;19.40;99.90
69901;DHT22;57183;50.930;5.406;2023-08-20T01:48:02;19.40;99.90
69901;DHT22;57183;50.930;5.406;2023-08-20T01:50:29;19.30;99.90
69901;DHT22;57183;50.930;5.406;2023-08-20T01:52:55;19.40;99.90
69901;DHT22;57183;50.930;5.406;2023-08-20T01:55:21;19.30;99.90
69901;DHT22;57183;50.930;5.406;2023-08-20T01:57:46;19.40;99.90
69901;DHT22;57183;50.930;5.406;2023-08-20T02:00:13;19.40;99.90
69901;DHT22;57183;50.930;5.406;2023-08-20T02:02:38;19.30;99.90
69901;DHT22;57183;50.930;5.406;2023-08-20T02:05:04;19.30;99.90
69901;DHT22;57183;50.930;5.406;2023-08-20T02:07:30;19.30;99.90
69901;DHT22;57183;50.930;5.406;2023-08-20T02:09:55;19.40;99.90
69901;DHT22;57183;50.930;5.406;2023-08-20T02:12:21;19.50;99.90
69901;DHT22;57183;50.930;5.406;2023-08-20T02:14:47;19.50;99.90
69901;DHT22;57183;50.930;5.406;2023-08-20T02:17:13;19.40;99.90
69901;DHT22;57183;50.930;5.406;2023-08-20T02:19:39;19.40;99.90
69901;DHT22;57183;50.930;5.406;2023-08-20T02:22:05;19.40;99.90
69901;DHT22;57183;50.930;5.406;2023-08-20T02:24:30;19.40;99.90
69901;DHT22;57183;50.930;5.406;2023-08-20T02:26:56;19.20;99.90
69901;DHT22;57183;50.930;5.406;2023-08-20T02:29:22;19.30;99.90
69901;DHT22;57183;50.930;5.406;2023-08-20T02:31:48;19.40;99.90
69901;DHT22;57183;50.930;5.406;2023-08-20T02:34:13;19.40;99.90
69901;DHT22;57183;50.930;5.406;2023-08-20T02:36:39;19.50;99.90
69901;DHT22;57183;50.930;5.406;2023-08-20T02:39:05;19.50;99.90
69901;DHT22;57183;50.930;5.406;2023-08-20T02:41:34;19.40;99.90
69901;DHT22;57183;50.930;5.406;2023-08-20T02:44:00;19.20;99.90
69901;DHT22;57183;50.930;5.406;2023-08-20T02:46:25;19.00;99.90
69901;DHT22;57183;50.930;5.406;2023-08-20T02:48:51;18.90;99.90
69901;DHT22;57183;50.930;5.406;2023-08-20T02:51:17;18.80;99.90
69901;DHT22;57183;50.930;5.406;2023-08-20T02:53:42;18.90;99.90
69901;DHT22;57183;50.930;5.406;2023-08-20T02:56:08;19.00;99.90
69901;DHT22;57183;50.930;5.406;2023-08-20T02:58:34;19.00;99.90
69901;DHT22;57183;50.930;5.406;2023-08-20T03:01:00;19.10;99.90
69901;DHT22;57183;50.930;5.406;2023-08-20T03:03:25;19.10;99.90
69901;DHT22;57183;50.930;5.406;2023-08-20T03:05:51;19.10;99.90
69901;DHT22;57183;50.930;5.406;2023-08-20T03:08:17;19.20;99.90
69901;DHT22;57183;50.930;5.406;2023-08-20T03:10:42;19.20;99.90
69901;DHT22;57183;50.930;5.406;2023-08-20T03:13:08;19.20;99.90
69901;DHT22;57183;50.930;5.406;2023-08-20T03:15:34;19.20;99.90
69901;DHT22;57183;50.930;5.406;2023-08-20T03:17:59;19.20;99.90
69901;DHT22;57183;50.930;5.406;2023-08-20T03:20:26;19.20;99.90
69901;DHT22;57183;50.930;5.406;2023-08-20T03:22:53;19.30;99.90
69901;DHT22;57183;50.930;5.406;2023-08-20T03:25:19;19.30;99.90
69901;DHT22;57183;50.930;5.406;2023-08-20T03:27:45;19.30;99.90
69901;DHT22;57183;50.930;5.406;2023-08-20T03:30:10;19.20;99.90
69901;DHT22;57183;50.930;5.406;2023-08-20T03:32:36;19.20;99.90
69901;DHT22;57183;50.930;5.406;2023-08-20T03:35:02;19.30;99.90
69901;DHT22;57183;50.930;5.406;2023-08-20T03:37:28;19.30;99.90
69901;DHT22;57183;50.930;5.406;2023-08-20T03:39:54;19.30;99.90
69901;DHT22;57183;50.930;5.406;2023-08-20T03:42:20;19.20;99.90
69901;DHT22;57183;50.930;5.406;2023-08-20T03:44:45;19.30;99.90
69901;DHT22;57183;50.930;5.406;2023-08-20T03:47:11;19.50;99.90
69901;DHT22;57183;50.930;5.406;2023-08-20T03:49:37;19.40;99.90
69901;DHT22;57183;50.930;5.406;2023-08-20T03:52:03;19.10;99.90
69901;DHT22;57183;50.930;5.406;2023-08-20T03:54:30;19.10;99.90
69901;DHT22;57183;50.930;5.406;2023-08-20T03:56:55;19.30;99.90
69901;DHT22;57183;50.930;5.406;2023-08-20T03:59:21;19.30;99.90
69901;DHT22;57183;50.930;5.406;2023-08-20T04:01:47;19.30;99.90
69901;DHT22;57183;50.930;5.406;2023-08-20T04:04:12;19.30;99.90
69901;DHT22;57183;50.930;5.406;2023-08-20T04:06:38;19.30;99.90
69901;DHT22;57183;50.930;5.406;2023-08-20T04:09:04;19.40;99.90
69901;DHT22;57183;50.930;5.406;2023-08-20T04:11:31;19.40;99.90
69901;DHT22;57183;50.930;5.406;2023-08-20T04:13:56;19.40;99.90
69901;DHT22;57183;50.930;5.406;2023-08-20T04:16:22;19.30;99.90
69901;DHT22;57183;50.930;5.406;2023-08-20T04:18:48;19.10;99.90
69901;DHT22;57183;50.930;5.406;2023-08-20T04:21:13;18.80;99.90
69901;DHT22;57183;50.930;5.406;2023-08-20T04:23:39;18.80;99.90
69901;DHT22;57183;50.930;5.406;2023-08-20T04:26:05;18.70;99.90
69901;DHT22;57183;50.930;5.406;2023-08-20T04:28:30;18.50;99.90
69901;DHT22;57183;50.930;5.406;2023-08-20T04:30:56;18.30;99.90
69901;DHT22;57183;50.930;5.406;2023-08-20T04:33:23;18.30;99.90
69901;DHT22;57183;50.930;5.406;2023-08-20T04:35:49;18.40;99.90
69901;DHT22;57183;50.930;5.406;2023-08-20T04:38:18;18.50;99.90
69901;DHT22;57183;50.930;5.406;2023-08-20T04:40:46;18.60;99.90
69901;DHT22;57183;50.930;5.406;2023-08-20T04:43:13;18.60;99.90
69901;DHT22;57183;50.930;5.406;2023-08-20T04:45:39;18.70;99.90
69901;DHT22;57183;50.930;5.406;2023-08-20T04:48:04;18.60;99.90
69901;DHT22;57183;50.930;5.406;2023-08-20T04:50:30;18.60;99.90
69901;DHT22;57183;50.930;5.406;2023-08-20T04:52:56;18.50;99.90
69901;DHT22;57183;50.930;5.406;2023-08-20T04:55:24;18.70;99.90
69901;DHT22;57183;50.930;5.406;2023-08-20T04:57:50;18.80;99.90
69901;DHT22;57183;50.930;5.406;2023-08-20T05:00:15;18.90;99.90
69901;DHT22;57183;50.930;5.406;2023-08-20T05:02:41;19.00;99.90
69901;DHT22;57183;50.930;5.406;2023-08-20T05:05:07;19.10;99.90
69901;DHT22;57183;50.930;5.406;2023-08-20T05:07:33;19.10;99.90
69901;DHT22;57183;50.930;5.406;2023-08-20T05:09:58;19.00;99.90
69901;DHT22;57183;50.930;5.406;2023-08-20T05:12:24;18.90;99.90
69901;DHT22;57183;50.930;5.406;2023-08-20T05:14:50;18.90;99.90
69901;DHT22;57183;50.930;5.406;2023-08-20T05:17:15;18.90;99.90
69901;DHT22;57183;50.930;5.406;2023-08-20T05:19:41;18.90;99.90
69901;DHT22;57183;50.930;5.406;2023-08-20T05:22:07;19.00;99.90
69901;DHT22;57183;50.930;5.406;2023-08-20T05:24:33;19.00;99.90
69901;DHT22;57183;50.930;5.406;2023-08-20T05:27:08;19.20;99.90
69901;DHT22;57183;50.930;5.406;2023-08-20T05:29:34;19.40;99.90
69901;DHT22;57183;50.930;5.406;2023-08-20T05:32:00;19.50;99.90
69901;DHT22;57183;50.930;5.406;2023-08-20T05:34:26;19.50;99.90
69901;DHT22;57183;50.930;5.406;2023-08-20T05:36:52;19.40;99.90
69901;DHT22;57183;50.930;5.406;2023-08-20T05:39:17;19.40;99.90
69901;DHT22;57183;50.930;5.406;2023-08-20T05:41:43;19.30;99.90
69901;DHT22;57183;50.930;5.406;2023-08-20T05:44:10;19.30;99.90
69901;DHT22;57183;50.930;5.406;2023-08-20T05:46:35;19.30;99.90
69901;DHT22;57183;50.930;5.406;2023-08-20T05:49:01;19.30;99.90
69901;DHT22;57183;50.930;5.406;2023-08-20T05:51:27;19.30;99.90
69901;DHT22;57183;50.930;5.406;2023-08-20T05:53:52;19.30;99.90
69901;DHT22;57183;50.930;5.406;2023-08-20T05:56:18;19.20;99.90
69901;DHT22;57183;50.930;5.406;2023-08-20T05:58:44;19.20;99.90
69901;DHT22;57183;50.930;5.406;2023-08-20T06:01:09;19.20;99.90
69901;DHT22;57183;50.930;5.406;2023-08-20T06:03:35;19.30;99.90
69901;DHT22;57183;50.930;5.406;2023-08-20T06:06:01;19.40;99.90
69901;DHT22;57183;50.930;5.406;2023-08-20T06:08:27;19.60;99.90
69901;DHT22;57183;50.930;5.406;2023-08-20T06:10:53;19.70;99.90
69901;DHT22;57183;50.930;5.406;2023-08-20T06:13:19;19.70;99.90
69901;DHT22;57183;50.930;5.406;2023-08-20T06:15:44;19.70;99.90
69901;DHT22;57183;50.930;5.406;2023-08-20T06:18:10;19.70;99.90
69901;DHT22;57183;50.930;5.406;2023-08-20T06:20:35;20.00;99.90
69901;DHT22;57183;50.930;5.406;2023-08-20T06:23:01;20.20;99.90
69901;DHT22;57183;50.930;5.406;2023-08-20T06:25:27;20.20;99.90
69901;DHT22;57183;50.930;5.406;2023-08-20T06:27:52;20.30;99.90
69901;DHT22;57183;50.930;5.406;2023-08-20T06:30:18;20.40;99.90
69901;DHT22;57183;50.930;5.406;2023-08-20T06:32:44;20.40;99.90
69901;DHT22;57183;50.930;5.406;2023-08-20T06:35:10;20.60;99.90
69901;DHT22;57183;50.930;5.406;2023-08-20T06:37:38;20.70;99.90
69901;DHT22;57183;50.930;5.406;2023-08-20T06:40:04;20.80;99.90
69901;DHT22;57183;50.930;5.406;2023-08-20T06:42:30;20.90;99.90
69901;DHT22;57183;50.930;5.406;2023-08-20T06:44:56;21.00;99.90
69901;DHT22;57183;50.930;5.406;2023-08-20T06:47:21;21.10;99.90
69901;DHT22;57183;50.930;5.406;2023-08-20T06:49:47;21.20;99.90
69901;DHT22;57183;50.930;5.406;2023-08-20T06:52:12;21.20;99.90
69901;DHT22;57183;50.930;5.406;2023-08-20T06:54:38;21.30;99.90
69901;DHT22;57183;50.930;5.406;2023-08-20T06:57:04;21.40;99.90
69901;DHT22;57183;50.930;5.406;2023-08-20T06:59:29;21.50;99.90
69901;DHT22;57183;50.930;5.406;2023-08-20T07:01:55;21.70;99.90
69901;DHT22;57183;50.930;5.406;2023-08-20T07:04:21;21.60;99.90
69901;DHT22;57183;50.930;5.406;2023-08-20T07:06:46;21.80;99.90
69901;DHT22;57183;50.930;5.406;2023-08-20T07:09:12;21.80;99.90
69901;DHT22;57183;50.930;5.406;2023-08-20T07:11:37;22.00;99.90
69901;DHT22;57183;50.930;5.406;2023-08-20T07:14:03;22.00;99.90
69901;DHT22;57183;50.930;5.406;2023-08-20T07:16:29;22.20;99.90
69901;DHT22;57183;50.930;5.406;2023-08-20T07:18:55;22.20;99.90
69901;DHT22;57183;50.930;5.406;2023-08-20T07:21:20;22.30;99.90
69901;DHT22;57183;50.930;5.406;2023-08-20T07:23:46;22.40;99.90
69901;DHT22;57183;50.930;5.406;2023-08-20T07:26:11;22.50;99.90
69901;DHT22;57183;50.930;5.406;2023-08-20T07:28:38;22.40;99.90
69901;DHT22;57183;50.930;5.406;2023-08-20T07:31:22;22.50;99.90
69901;DHT22;57183;50.930;5.406;2023-08-20T07:33:49;22.60;99.90
69901;DHT22;57183;50.930;5.406;2023-08-20T07:36:16;22.70;99.90
69901;DHT22;57183;50.930;5.406;2023-08-20T07:38:42;22.70;99.90
69901;DHT22;57183;50.930;5.406;2023-08-20T07:41:09;22.80;99.90
69901;DHT22;57183;50.930;5.406;2023-08-20T07:43:37;23.00;99.90
69901;DHT22;57183;50.930;5.406;2023-08-20T07:46:03;23.00;99.90
69901;DHT22;57183;50.930;5.406;2023-08-20T07:48:29;23.00;99.90
69901;DHT22;57183;50.930;5.406;2023-08-20T07:50:55;23.10;99.90
69901;DHT22;57183;50.930;5.406;2023-08-20T07:53:21;23.10;99.90
69901;DHT22;57183;50.930;5.406;2023-08-20T07:55:46;23.20;99.90
69901;DHT22;57183;50.930;5.406;2023-08-20T07:58:12;23.30;99.90
69901;DHT22;57183;50.930;5.406;2023-08-20T08:00:37;23.40;99.90
69901;DHT22;57183;50.930;5.406;2023-08-20T08:03:03;23.60;99.90
69901;DHT22;57183;50.930;5.406;2023-08-20T08:05:29;23.70;99.90
69901;DHT22;57183;50.930;5.406;2023-08-20T08:07:55;23.60;99.90
69901;DHT22;57183;50.930;5.406;2023-08-20T08:10:20;23.70;99.90
69901;DHT22;57183;50.930;5.406;2023-08-20T08:12:46;23.70;99.90
69901;DHT22;57183;50.930;5.406;2023-08-20T08:15:12;23.70;99.90
69901;DHT22;57183;50.930;5.406;2023-08-20T08:17:38;23.80;99.90
69901;DHT22;57183;50.930;5.406;2023-08-20T08:20:04;23.80;99.90
69901;DHT22;57183;50.930;5.406;2023-08-20T08:22:30;23.90;99.90
69901;DHT22;57183;50.930;5.406;2023-08-20T08:24:56;23.90;99.90
69901;DHT22;57183;50.930;5.406;2023-08-20T08:27:21;23.90;99.90
69901;DHT22;57183;50.930;5.406;2023-08-20T08:29:47;24.00;99.90
69901;DHT22;57183;50.930;5.406;2023-08-20T08:32:13;24.20;99.90
69901;DHT22;57183;50.930;5.406;2023-08-20T08:34:39;24.20;99.90
69901;DHT22;57183;50.930;5.406;2023-08-20T08:37:04;24.30;99.90
69901;DHT22;57183;50.930;5.406;2023-08-20T08:39:30;24.30;99.90
69901;DHT22;57183;50.930;5.406;2023-08-20T08:42:02;24.20;99.90
69901;DHT22;57183;50.930;5.406;2023-08-20T08:44:36;24.30;99.90
69901;DHT22;57183;50.930;5.406;2023-08-20T08:47:02;24.40;99.90
69901;DHT22;57183;50.930;5.406;2023-08-20T08:49:28;24.50;99.90
69901;DHT22;57183;50.930;5.406;2023-08-20T08:51:57;24.40;99.90
69901;DHT22;57183;50.930;5.406;2023-08-20T08:54:23;24.40;99.90
69901;DHT22;57183;50.930;5.406;2023-08-20T08:56:50;24.50;99.90
69901;DHT22;57183;50.930;5.406;2023-08-20T08:59:15;24.50;99.90
69901;DHT22;57183;50.930;5.406;2023-08-20T09:01:41;24.50;99.90
69901;DHT22;57183;50.930;5.406;2023-08-20T09:04:07;24.50;99.90
69901;DHT22;57183;50.930;5.406;2023-08-20T09:06:49;24.60;99.90
69901;DHT22;57183;50.930;5.406;2023-08-20T09:09:17;24.70;99.90
69901;DHT22;57183;50.930;5.406;2023-08-20T09:11:42;24.70;99.90
69901;DHT22;57183;50.930;5.406;2023-08-20T09:14:10;24.80;99.90
69901;DHT22;57183;50.930;5.406;2023-08-20T09:16:45;24.70;99.90
69901;DHT22;57183;50.930;5.406;2023-08-20T09:19:11;24.90;99.90
69901;DHT22;57183;50.930;5.406;2023-08-20T09:21:36;25.00;99.90
69901;DHT22;57183;50.930;5.406;2023-08-20T09:24:02;25.10;99.90
69901;DHT22;57183;50.930;5.406;2023-08-20T09:26:28;24.90;99.90
69901;DHT22;57183;50.930;5.406;2023-08-20T09:28:55;25.00;99.90
69901;DHT22;57183;50.930;5.406;2023-08-20T09:31:37;25.00;99.90
69901;DHT22;57183;50.930;5.406;2023-08-20T09:34:04;25.00;99.90
69901;DHT22;57183;50.930;5.406;2023-08-20T09:36:34;25.10;99.90
69901;DHT22;57183;50.930;5.406;2023-08-20T09:39:04;25.30;99.90
69901;DHT22;57183;50.930;5.406;2023-08-20T09:41:30;25.40;99.90
69901;DHT22;57183;50.930;5.406;2023-08-20T09:43:58;25.40;99.90
69901;DHT22;57183;50.930;5.406;2023-08-20T09:46:27;25.40;99.90
69901;DHT22;57183;50.930;5.406;2023-08-20T09:48:56;25.40;99.90
69901;DHT22;57183;50.930;5.406;2023-08-20T09:51:28;25.60;99.90
69901;DHT22;57183;50.930;5.406;2023-08-20T09:56:38;25.80;99.90
69901;DHT22;57183;50.930;5.406;2023-08-20T09:59:04;25.50;99.90
69901;DHT22;57183;50.930;5.406;2023-08-20T10:01:30;25.60;99.90
69901;DHT22;57183;50.930;5.406;2023-08-20T10:03:56;25.70;99.90
69901;DHT22;57183;50.930;5.406;2023-08-20T10:06:23;25.70;99.90
69901;DHT22;57183;50.930;5.406;2023-08-20T10:08:50;25.90;99.90
69901;DHT22;57183;50.930;5.406;2023-08-20T10:11:16;25.90;99.90
69901;DHT22;57183;50.930;5.406;2023-08-20T10:13:43;25.80;99.90
69901;DHT22;57183;50.930;5.406;2023-08-20T10:16:11;25.70;99.90
69901;DHT22;57183;50.930;5.406;2023-08-20T10:18:37;25.80;99.90
69901;DHT22;57183;50.930;5.406;2023-08-20T10:21:04;25.80;99.90
69901;DHT22;57183;50.930;5.406;2023-08-20T10:23:33;25.90;99.90
69901;DHT22;57183;50.930;5.406;2023-08-20T10:26:09;26.00;99.90
69901;DHT22;57183;50.930;5.406;2023-08-20T10:28:37;26.10;99.90
69901;DHT22;57183;50.930;5.406;2023-08-20T10:31:09;26.10;99.90
69901;DHT22;57183;50.930;5.406;2023-08-20T10:33:54;25.90;99.90
69901;DHT22;57183;50.930;5.406;2023-08-20T10:36:21;26.00;99.90
69901;DHT22;57183;50.930;5.406;2023-08-20T10:38:57;26.10;99.90
69901;DHT22;57183;50.930;5.406;2023-08-20T10:41:30;26.20;99.90
69901;DHT22;57183;50.930;5.406;2023-08-20T10:43:58;26.00;99.90
69901;DHT22;57183;50.930;5.406;2023-08-20T10:46:26;26.10;99.90
69901;DHT22;57183;50.930;5.406;2023-08-20T10:48:55;26.20;99.90
69901;DHT22;57183;50.930;5.406;2023-08-20T10:51:37;26.20;99.90
69901;DHT22;57183;50.930;5.406;2023-08-20T10:54:08;26.30;99.90
69901;DHT22;57183;50.930;5.406;2023-08-20T10:56:42;26.40;99.90
69901;DHT22;57183;50.930;5.406;2023-08-20T10:59:13;26.30;99.90
69901;DHT22;57183;50.930;5.406;2023-08-20T11:01:39;26.50;99.90
69901;DHT22;57183;50.930;5.406;2023-08-20T11:04:05;26.50;99.90
69901;DHT22;57183;50.930;5.406;2023-08-20T11:06:33;26.40;99.90
69901;DHT22;57183;50.930;5.406;2023-08-20T11:08:59;26.60;99.90
69901;DHT22;57183;50.930;5.406;2023-08-20T11:11:25;26.60;99.90
69901;DHT22;57183;50.930;5.406;2023-08-20T11:13:51;26.70;99.90
69901;DHT22;57183;50.930;5.406;2023-08-20T11:16:19;26.70;99.90
69901;DHT22;57183;50.930;5.406;2023-08-20T11:18:45;26.90;99.90
69901;DHT22;57183;50.930;5.406;2023-08-20T11:21:12;27.00;99.90
69901;DHT22;57183;50.930;5.406;2023-08-20T11:23:39;27.10;99.90
69901;DHT22;57183;50.930;5.406;2023-08-20T11:26:07;27.20;99.90
69901;DHT22;57183;50.930;5.406;2023-08-20T11:28:33;27.10;99.90
69901;DHT22;57183;50.930;5.406;2023-08-20T11:31:01;27.10;99.90
69901;DHT22;57183;50.930;5.406;2023-08-20T11:33:27;27.00;99.90
69901;DHT22;57183;50.930;5.406;2023-08-20T11:35:54;27.00;99.90
69901;DHT22;57183;50.930;5.406;2023-08-20T11:38:22;26.90;99.90
69901;DHT22;57183;50.930;5.406;2023-08-20T11:40:48;27.00;99.90
69901;DHT22;57183;50.930;5.406;2023-08-20T11:43:14;27.10;99.90
69901;DHT22;57183;50.930;5.406;2023-08-20T11:45:47;27.00;99.90
69901;DHT22;57183;50.930;5.406;2023-08-20T11:48:13;26.90;99.90
69901;DHT22;57183;50.930;5.406;2023-08-20T11:50:40;26.90;99.90
69901;DHT22;57183;50.930;5.406;2023-08-20T11:53:07;26.90;99.90
69901;DHT22;57183;50.930;5.406;2023-08-20T11:55:33;26.80;99.90
69901;DHT22;57183;50.930;5.406;2023-08-20T11:57:59;26.80;99.90
69901;DHT22;57183;50.930;5.406;2023-08-20T12:00:26;26.80;99.90
69901;DHT22;57183;50.930;5.406;2023-08-20T12:02:53;26.90;99.90
69901;DHT22;57183;50.930;5.406;2023-08-20T12:05:20;26.90;99.90
69901;DHT22;57183;50.930;5.406;2023-08-20T12:08:02;27.00;99.90
69901;DHT22;57183;50.930;5.406;2023-08-20T12:10:29;27.00;99.90
69901;DHT22;57183;50.930;5.406;2023-08-20T12:12:58;27.10;99.90
69901;DHT22;57183;50.930;5.406;2023-08-20T12:15:24;27.20;99.90
69901;DHT22;57183;50.930;5.406;2023-08-20T12:18:02;27.40;99.90
69901;DHT22;57183;50.930;5.406;2023-08-20T12:20:31;27.40;99.90
69901;DHT22;57183;50.930;5.406;2023-08-20T12:22:59;27.40;99.90
69901;DHT22;57183;50.930;5.406;2023-08-20T12:25:25;27.50;99.90
69901;DHT22;57183;50.930;5.406;2023-08-20T12:27:51;27.80;99.90
69901;DHT22;57183;50.930;5.406;2023-08-20T12:30:16;27.80;99.90
69901;DHT22;57183;50.930;5.406;2023-08-20T12:32:42;27.90;99.90
69901;DHT22;57183;50.930;5.406;2023-08-20T12:35:08;27.90;99.90
69901;DHT22;57183;50.930;5.406;2023-08-20T12:37:33;28.00;99.90
69901;DHT22;57183;50.930;5.406;2023-08-20T12:39:59;28.10;99.90
69901;DHT22;57183;50.930;5.406;2023-08-20T12:42:25;27.90;99.90
69901;DHT22;57183;50.930;5.406;2023-08-20T12:44:51;27.70;99.90
69901;DHT22;57183;50.930;5.406;2023-08-20T12:47:16;27.70;99.90
69901;DHT22;57183;50.930;5.406;2023-08-20T12:49:42;27.60;99.90
69901;DHT22;57183;50.930;5.406;2023-08-20T12:52:07;27.70;99.90
69901;DHT22;57183;50.930;5.406;2023-08-20T12:54:33;27.60;99.90
69901;DHT22;57183;50.930;5.406;2023-08-20T12:56:59;27.80;99.90
69901;DHT22;57183;50.930;5.406;2023-08-20T12:59:25;27.80;99.90
69901;DHT22;57183;50.930;5.406;2023-08-20T13:01:50;27.90;99.90
69901;DHT22;57183;50.930;5.406;2023-08-20T13:04:16;27.80;99.90
69901;DHT22;57183;50.930;5.406;2023-08-20T13:06:42;27.90;99.90
69901;DHT22;57183;50.930;5.406;2023-08-20T13:09:08;28.00;99.90
69901;DHT22;57183;50.930;5.406;2023-08-20T13:11:35;28.10;99.90
69901;DHT22;57183;50.930;5.406;2023-08-20T13:14:01;28.20;99.90
69901;DHT22;57183;50.930;5.406;2023-08-20T13:16:27;28.30;99.90
69901;DHT22;57183;50.930;5.406;2023-08-20T13:18:54;28.40;99.90
69901;DHT22;57183;50.930;5.406;2023-08-20T13:21:20;28.40;99.90
69901;DHT22;57183;50.930;5.406;2023-08-20T13:23:47;28.60;99.90
69901;DHT22;57183;50.930;5.406;2023-08-20T13:26:12;28.70;99.90
69901;DHT22;57183;50.930;5.406;2023-08-20T13:28:38;28.60;99.90
69901;DHT22;57183;50.930;5.406;2023-08-20T13:31:03;28.60;99.90
69901;DHT22;57183;50.930;5.406;2023-08-20T13:33:29;28.60;99.90
69901;DHT22;57183;50.930;5.406;2023-08-20T13:35:55;28.40;99.90
69901;DHT22;57183;50.930;5.406;2023-08-20T13:38:21;28.40;99.90
69901;DHT22;57183;50.930;5.406;2023-08-20T13:40:47;28.40;99.90
69901;DHT22;57183;50.930;5.406;2023-08-20T13:43:14;28.50;99.90
69901;DHT22;57183;50.930;5.406;2023-08-20T13:45:39;28.60;99.90
69901;DHT22;57183;50.930;5.406;2023-08-20T13:48:05;28.80;99.90
69901;DHT22;57183;50.930;5.406;2023-08-20T13:50:31;28.90;99.90
69901;DHT22;57183;50.930;5.406;2023-08-20T13:52:57;29.30;99.90
69901;DHT22;57183;50.930;5.406;2023-08-20T13:55:22;29.30;99.40
69901;DHT22;57183;50.930;5.406;2023-08-20T13:57:48;29.40;99.00
69901;DHT22;57183;50.930;5.406;2023-08-20T14:00:14;29.60;99.90
69901;DHT22;57183;50.930;5.406;2023-08-20T14:02:40;29.70;99.60
69901;DHT22;57183;50.930;5.406;2023-08-20T14:05:06;29.90;99.90
69901;DHT22;57183;50.930;5.406;2023-08-20T14:07:32;30.20;99.00
69901;DHT22;57183;50.930;5.406;2023-08-20T14:09:58;30.20;99.00
69901;DHT22;57183;50.930;5.406;2023-08-20T14:12:25;30.40;99.20
69901;DHT22;57183;50.930;5.406;2023-08-20T14:14:50;30.10;97.40
69901;DHT22;57183;50.930;5.406;2023-08-20T14:17:16;30.20;98.90
69901;DHT22;57183;50.930;5.406;2023-08-20T14:19:42;30.60;99.90
69901;DHT22;57183;50.930;5.406;2023-08-20T14:22:08;32.30;96.00
69901;DHT22;57183;50.930;5.406;2023-08-20T14:24:33;33.70;94.90
69901;DHT22;57183;50.930;5.406;2023-08-20T14:26:59;35.20;91.40
69901;DHT22;57183;50.930;5.406;2023-08-20T14:29:24;36.10;89.80
69901;DHT22;57183;50.930;5.406;2023-08-20T14:31:50;36.10;89.30
69901;DHT22;57183;50.930;5.406;2023-08-20T14:34:16;35.40;90.30
69901;DHT22;57183;50.930;5.406;2023-08-20T14:36:41;36.00;89.50
69901;DHT22;57183;50.930;5.406;2023-08-20T14:39:07;36.00;87.00
69901;DHT22;57183;50.930;5.406;2023-08-20T14:41:33;35.80;86.40
69901;DHT22;57183;50.930;5.406;2023-08-20T14:43:59;36.60;85.20
69901;DHT22;57183;50.930;5.406;2023-08-20T14:46:25;37.20;81.20
69901;DHT22;57183;50.930;5.406;2023-08-20T14:48:50;37.90;81.40
69901;DHT22;57183;50.930;5.406;2023-08-20T14:51:16;38.30;76.60
69901;DHT22;57183;50.930;5.406;2023-08-20T14:53:42;37.00;75.40
69901;DHT22;57183;50.930;5.406;2023-08-20T14:56:07;35.60;76.80
69901;DHT22;57183;50.930;5.406;2023-08-20T14:58:33;35.30;80.10
69901;DHT22;57183;50.930;5.406;2023-08-20T15:00:59;35.30;80.00
69901;DHT22;57183;50.930;5.406;2023-08-20T15:03:25;35.60;78.80
69901;DHT22;57183;50.930;5.406;2023-08-20T15:05:50;36.00;76.70
69901;DHT22;57183;50.930;5.406;2023-08-20T15:08:16;36.50;77.90
69901;DHT22;57183;50.930;5.406;2023-08-20T15:10:42;36.00;77.50
69901;DHT22;57183;50.930;5.406;2023-08-20T15:13:07;36.00;78.40
69901;DHT22;57183;50.930;5.406;2023-08-20T15:15:33;35.60;77.40
69901;DHT22;57183;50.930;5.406;2023-08-20T15:17:59;35.80;78.70
69901;DHT22;57183;50.930;5.406;2023-08-20T15:20:24;35.50;76.30
69901;DHT22;57183;50.930;5.406;2023-08-20T15:22:50;35.40;77.70
69901;DHT22;57183;50.930;5.406;2023-08-20T15:25:16;35.30;78.80
69901;DHT22;57183;50.930;5.406;2023-08-20T15:27:42;35.00;78.60
69901;DHT22;57183;50.930;5.406;2023-08-20T15:30:08;35.30;77.60
69901;DHT22;57183;50.930;5.406;2023-08-20T15:32:34;36.30;79.80
69901;DHT22;57183;50.930;5.406;2023-08-20T15:35:00;36.90;76.90
69901;DHT22;57183;50.930;5.406;2023-08-20T15:37:31;37.40;74.80
69901;DHT22;57183;50.930;5.406;2023-08-20T15:39:56;37.50;71.90